PWSweather.com
Personal Weather Stations
Station Observations
SANDHURSTWX
SandhurstGB

SandhurstGB

Lat: 51.3522, Lon: -0.7739

Elevation: 272.3

Station Type: Davis VP2

www.sandhurstweather.org.uk

High Low Average
Temperature 40.5°F4.7°C 28.4°F-2.0°C 33.1°F0.6°C
Dew Point 36.9°F2.7°C 27.2°F-2.7°C 31.4°F-0.3°C
Winds 4.6 mph 7.4 kmh Calm Calm 2.0 mph WNW3.2 kmh WNW
Wind Gusts 5.8 mph9.3 kmh -- 3.0 mph4.8 kmh
Humidity 97% 87% 93%
Pressure 30.48 in1032.2 mb 30.39 in1029.1 mb -
Precipitation 0.00 in0.0 mm - -
Hour Temp Dew Point Humidity Winds Wind Gusts Pressure Precip Precip Rate Daily Precip Total
12:00 AM 32.5°F0.3°C 31.0°F-0.6°C 94% 1.2 mph N1.9 kmh N 1.2 mph1.9 kmh 30.39 in1029.1 mb - 0.00 in0.0 mm 0.00 in0.0 mm
01:00 AM 32.0°F0.0°C 30.7°F-0.7°C 95% 2.3 mph N3.7 kmh N 4.6 mph7.4 kmh 30.39 in1029.1 mb - 0.00 in0.0 mm 0.00 in0.0 mm
02:00 AM 32.2°F0.1°C 30.7°F-0.7°C 94% 4.6 mph NNW7.4 kmh NNW 5.8 mph9.3 kmh 30.39 in1029.1 mb - 0.00 in0.0 mm 0.00 in0.0 mm
03:00 AM 31.4°F-0.3°C 29.9°F-1.2°C 94% 3.5 mph NNW5.6 kmh NNW 5.8 mph9.3 kmh 30.40 in1029.5 mb - 0.00 in0.0 mm 0.00 in0.0 mm
04:00 AM 31.2°F-0.4°C 29.9°F-1.2°C 95% 3.5 mph NNW5.6 kmh NNW 3.5 mph5.6 kmh 30.41 in1029.8 mb - 0.00 in0.0 mm 0.00 in0.0 mm
05:00 AM 30.3°F-0.9°C 29.0°F-1.7°C 95% 2.3 mph NW3.7 kmh NW 3.5 mph5.6 kmh 30.42 in1030.1 mb - 0.00 in0.0 mm 0.00 in0.0 mm
06:00 AM 29.9°F-1.2°C 28.7°F-1.8°C 95% 3.5 mph NW5.6 kmh NW 4.6 mph7.4 kmh 30.43 in1030.5 mb - 0.00 in0.0 mm 0.00 in0.0 mm
07:00 AM 29.2°F-1.6°C 27.9°F-2.3°C 95% 1.2 mph NW1.9 kmh NW 2.3 mph3.7 kmh 30.45 in1031.2 mb - 0.00 in0.0 mm 0.00 in0.0 mm
08:00 AM 28.4°F-2.0°C 27.2°F-2.7°C 95% Calm Calm -- 30.46 in1031.5 mb - 0.00 in0.0 mm 0.00 in0.0 mm
09:00 AM 28.7°F-1.8°C 27.7°F-2.4°C 96% 2.3 mph NW3.7 kmh NW 3.5 mph5.6 kmh 30.47 in1031.8 mb - 0.00 in0.0 mm 0.00 in0.0 mm
10:00 AM 30.7°F-0.7°C 29.7°F-1.3°C 96% Calm Calm 1.2 mph1.9 kmh 30.48 in1032.2 mb - 0.00 in0.0 mm 0.00 in0.0 mm
11:00 AM 32.8°F0.4°C 32.0°F0.0°C 97% 3.5 mph WNW5.6 kmh WNW 3.5 mph5.6 kmh 30.47 in1031.8 mb - 0.00 in0.0 mm 0.00 in0.0 mm
12:00 PM 35.5°F1.9°C 33.7°F0.9°C 93% 4.6 mph NW7.4 kmh NW 5.8 mph9.3 kmh 30.47 in1031.8 mb - 0.00 in0.0 mm 0.00 in0.0 mm
01:00 PM 38.0°F3.3°C 35.0°F1.7°C 89% 3.5 mph NW5.6 kmh NW 5.8 mph9.3 kmh 30.46 in1031.5 mb - 0.00 in0.0 mm 0.00 in0.0 mm
02:00 PM 40.0°F4.4°C 36.4°F2.4°C 87% 2.3 mph WNW3.7 kmh WNW 3.5 mph5.6 kmh 30.45 in1031.2 mb - 0.00 in0.0 mm 0.00 in0.0 mm
03:00 PM 40.5°F4.7°C 36.9°F2.7°C 87% 2.3 mph W3.7 kmh W 3.5 mph5.6 kmh 30.45 in1031.2 mb - 0.00 in0.0 mm 0.00 in0.0 mm
04:00 PM 38.9°F3.8°C 35.9°F2.2°C 89% 1.2 mph WNW1.9 kmh WNW 1.2 mph1.9 kmh 30.46 in1031.5 mb - 0.00 in0.0 mm 0.00 in0.0 mm
05:00 PM 35.9°F2.2°C 33.6°F0.9°C 91% 1.2 mph NW1.9 kmh NW 1.2 mph1.9 kmh 30.45 in1031.2 mb - 0.00 in0.0 mm 0.00 in0.0 mm
06:00 PM 34.8°F1.6°C 33.0°F0.6°C 93% Calm Calm -- 30.46 in1031.5 mb - 0.00 in0.0 mm 0.00 in0.0 mm
07:00 PM 32.6°F0.3°C 30.8°F-0.7°C 93% Calm Calm -- 30.45 in1031.2 mb - 0.00 in0.0 mm 0.00 in0.0 mm
08:00 PM 32.7°F0.4°C 31.4°F-0.3°C 95% Calm Calm -- 30.45 in1031.2 mb - 0.00 in0.0 mm 0.00 in0.0 mm
09:00 PM 31.7°F-0.2°C 30.2°F-1.0°C 94% Calm Calm -- 30.46 in1031.5 mb - 0.00 in0.0 mm 0.00 in0.0 mm
10:00 PM 32.3°F0.2°C 31.0°F-0.6°C 95% Calm Calm -- 30.46 in1031.5 mb - 0.00 in0.0 mm 0.00 in0.0 mm
11:00 PM 33.0°F0.6°C 32.0°F0.0°C 96% Calm Calm -- 30.47 in1031.8 mb - 0.00 in0.0 mm 0.00 in0.0 mm